createdAt,value
2022-11-09T15:02:31.817Z,100665.78
2022-11-09T15:05:00.137Z,100654.00
2022-11-09T15:07:28.469Z,100662.44
2022-11-09T15:09:57.352Z,100670.84
2022-11-09T15:12:24.091Z,100670.56
2022-11-09T15:14:52.862Z,100666.59
2022-11-09T15:17:31.758Z,100674.19
2022-11-09T15:19:59.931Z,100680.94
2022-11-09T15:22:45.417Z,100686.25
2022-11-09T15:25:24.145Z,100679.50
2022-11-09T15:27:59.623Z,100683.34
2022-11-09T15:30:34.312Z,100695.59
2022-11-09T15:33:01.245Z,100700.56
2022-11-09T15:35:28.026Z,100700.75
2022-11-09T15:37:55.974Z,100717.31
2022-11-09T15:40:24.619Z,100723.09
2022-11-09T15:42:51.246Z,100718.03
2022-11-09T15:45:19.497Z,100724.97
2022-11-09T15:47:50.939Z,100723.53
2022-11-09T15:50:20.062Z,100727.97
2022-11-09T15:52:46.932Z,100728.50
2022-11-09T15:55:17.759Z,100731.81
2022-11-09T15:57:44.396Z,100734.31
2022-11-09T16:00:19.689Z,100740.75
2022-11-09T16:02:48.150Z,100743.25
2022-11-09T16:05:15.842Z,100742.63
2022-11-09T16:07:50.909Z,100751.88
2022-11-09T16:10:20.708Z,100765.28
2022-11-09T16:12:48.100Z,100766.13
2022-11-09T16:15:14.862Z,100765.81
2022-11-09T16:17:41.534Z,100780.69
2022-11-09T16:20:09.723Z,100777.88
2022-11-09T16:22:36.697Z,100783.16
2022-11-09T16:25:03.495Z,100790.44
2022-11-09T16:30:19.954Z,100794.41
2022-11-09T16:32:46.897Z,100797.19
2022-11-09T16:35:29.299Z,100795.22
2022-11-09T16:37:57.972Z,100792.41
2022-11-09T16:40:26.242Z,100802.81
2022-11-09T16:42:53.638Z,100810.41
2022-11-09T16:45:23.022Z,100816.03
2022-11-09T16:47:51.545Z,100812.09
2022-11-09T16:50:18.151Z,100822.47
2022-11-09T16:52:45.337Z,100826.13
2022-11-09T16:55:11.916Z,100825.63
2022-11-09T16:57:38.500Z,100826.47
2022-11-09T17:00:06.180Z,100826.47
2022-11-09T17:02:33.210Z,100838.00
2022-11-09T17:04:59.806Z,100838.84
2022-11-09T17:07:26.713Z,100838.00
2022-11-09T17:09:53.552Z,100835.50
2022-11-09T17:12:20.193Z,100841.94
2022-11-09T17:14:46.793Z,100850.69
2022-11-09T17:17:16.954Z,100851.00
2022-11-09T17:19:46.960Z,100867.53
2022-11-09T17:22:14.792Z,100878.16
2022-11-09T17:24:41.706Z,100874.81
2022-11-09T17:27:09.563Z,100883.78
2022-11-09T17:29:38.050Z,100892.41
2022-11-09T17:32:08.803Z,100902.50
2022-11-09T17:34:35.793Z,100899.69
2022-11-09T17:37:04.849Z,100900.53
2022-11-09T17:39:31.978Z,100912.59
2022-11-09T17:41:58.609Z,100919.03
2022-11-09T17:44:25.236Z,100927.47
2022-11-09T17:46:52.114Z,100925.81
2022-11-09T17:49:18.699Z,100944.94
2022-11-09T17:51:45.335Z,100941.94
2022-11-09T17:54:11.890Z,100946.19
2022-11-09T17:56:38.750Z,100941.75
2022-11-09T17:59:05.676Z,100950.66
2022-11-09T18:01:36.557Z,100952.34
2022-11-09T18:04:08.260Z,100947.75
2022-11-09T18:06:35.112Z,100953.06
2022-11-09T18:11:48.858Z,100950.16
2022-11-09T18:14:16.145Z,100954.34
2022-11-09T18:16:42.960Z,100962.13
2022-11-09T18:19:09.544Z,100971.41
2022-11-09T18:21:36.138Z,100979.53
2022-11-09T18:24:02.777Z,100980.38
2022-11-09T18:26:29.564Z,100987.66
2022-11-09T18:28:57.113Z,100992.94
2022-11-09T18:31:23.974Z,100998.56
2022-11-09T18:34:00.945Z,100993.78
2022-11-09T18:36:28.249Z,101007.53
2022-11-09T18:38:56.026Z,101003.59
2022-11-09T18:41:23.627Z,101003.59
2022-11-09T18:43:58.653Z,101017.63
2022-11-09T18:46:27.077Z,101022.09
2022-11-09T18:48:54.508Z,101019.28
2022-11-09T18:51:21.413Z,101023.25
2022-11-09T18:53:48.541Z,101037.31
2022-11-09T18:56:23.326Z,101037.31
2022-11-09T18:58:55.111Z,101031.69
2022-11-09T19:01:25.704Z,101036.78
2022-11-09T19:04:00.514Z,101036.47
2022-11-09T19:06:27.326Z,101046.03
2022-11-09T19:09:12.572Z,101049.97
2022-11-09T19:11:39.291Z,101043.53
2022-11-09T19:14:06.127Z,101045.50
2022-11-09T19:16:32.791Z,101044.69
2022-11-09T19:18:59.383Z,101065.16
2022-11-09T19:21:27.213Z,101069.16
2022-11-09T19:24:00.352Z,101066.63
2022-11-09T19:26:27.035Z,101058.22
2022-11-09T19:28:53.770Z,101068.63
2022-11-09T19:31:22.011Z,101070.91
2022-11-09T19:33:53.550Z,101077.66
2022-11-09T19:36:30.250Z,101080.47
2022-11-09T19:38:57.875Z,101095.38
2022-11-09T19:41:25.740Z,101106.59
2022-11-09T19:43:54.723Z,101116.47
2022-11-09T19:46:21.790Z,101114.50
2022-11-09T19:48:48.595Z,101118.16
2022-11-09T19:51:16.181Z,101128.53
2022-11-09T19:53:43.004Z,101130.53
2022-11-09T19:56:09.899Z,101142.88
2022-11-09T19:58:36.652Z,101138.94
2022-11-09T20:01:07.457Z,101140.91
2022-11-09T20:03:34.513Z,101148.81
2022-11-09T20:06:01.556Z,101160.06
2022-11-09T20:08:28.215Z,101158.38
2022-11-09T20:10:55.087Z,101160.63
2022-11-09T20:13:22.344Z,101167.09
2022-11-09T20:15:48.974Z,101165.47
2022-11-09T20:18:15.978Z,101162.09
2022-11-09T20:20:42.885Z,101166.03
2022-11-09T20:23:09.896Z,101160.75
2022-11-09T20:25:36.532Z,101167.19
2022-11-09T20:28:03.211Z,101176.22
2022-11-09T20:30:30.052Z,101178.53
